Time,TemperatureF,DewpointF,PressureIn,WindDirection,WindDirectionDegrees,WindSpeedMPH,WindSpeedGustMPH,Humidity,HourlyPrecipIn,Conditions,Clouds,dailyrainin,SoftwareType,DateUTC
2013-03-09 00:00:00,50.9,46.6,30.16,WNW,289,0.0,0.0,85,0.00,,---,0.00,VWS V14.00,2013-03-09 05:00:00,
2013-03-09 00:01:00,50.9,46.6,30.16,WNW,289,0.0,0.0,85,0.00,,---,0.00,VWS V14.00,2013-03-09 05:01:00,
2013-03-09 00:05:00,50.6,46.6,30.16,WNW,289,0.0,0.0,86,0.00,,---,0.00,VWS V14.00,2013-03-09 05:05:00,
2013-03-09 00:06:00,50.8,46.8,30.16,WNW,289,0.0,0.0,86,0.00,,---,0.00,VWS V14.00,2013-03-09 05:06:00,
2013-03-09 00:10:00,50.6,46.6,30.16,WNW,289,0.0,0.0,86,0.00,,---,0.00,VWS V14.00,2013-03-09 05:10:00,
2013-03-09 00:11:00,50.8,46.8,30.16,WNW,289,0.0,0.0,86,0.00,,---,0.00,VWS V14.00,2013-03-09 05:11:00,
2013-03-09 00:15:00,50.6,46.6,30.16,WNW,289,0.0,0.0,86,0.00,,---,0.00,VWS V14.00,2013-03-09 05:15:00,
2013-03-09 00:16:00,50.6,46.6,30.16,WNW,289,0.0,0.0,86,0.00,,---,0.00,VWS V14.00,2013-03-09 05:16:00,
2013-03-09 00:20:00,50.4,46.4,30.15,WNW,289,0.0,0.0,86,0.00,,---,0.00,VWS V14.00,2013-03-09 05:20:00,
2013-03-09 00:21:00,50.6,46.9,30.16,WNW,289,0.0,0.0,87,0.00,,---,0.00,VWS V14.00,2013-03-09 05:21:00,
2013-03-09 00:25:00,50.4,46.7,30.15,WNW,289,0.0,0.0,87,0.00,,---,0.00,VWS V14.00,2013-03-09 05:25:00,
2013-03-09 00:26:00,50.5,46.8,30.16,WNW,289,0.0,0.0,87,0.00,,---,0.00,VWS V14.00,2013-03-09 05:26:00,
2013-03-09 00:30:00,50.3,46.6,30.15,WNW,289,0.0,0.0,87,0.00,,---,0.00,VWS V14.00,2013-03-09 05:30:00,
2013-03-09 00:31:00,50.5,46.8,30.15,WNW,289,0.0,0.0,87,0.00,,---,0.00,VWS V14.00,2013-03-09 05:31:00,
2013-03-09 00:35:00,50.3,46.6,30.15,WNW,289,0.0,0.0,87,0.00,,---,0.00,VWS V14.00,2013-03-09 05:35:00,
2013-03-09 00:36:00,50.4,46.7,30.15,WNW,289,0.0,0.0,87,0.00,,---,0.00,VWS V14.00,2013-03-09 05:36:00,
2013-03-09 00:40:00,50.3,46.6,30.14,WNW,289,0.0,0.0,87,0.00,,---,0.00,VWS V14.00,2013-03-09 05:40:00,
2013-03-09 00:41:00,50.5,47.1,30.15,WNW,289,0.0,0.0,88,0.00,,---,0.00,VWS V14.00,2013-03-09 05:41:00,
2013-03-09 00:45:00,50.3,46.6,30.14,WNW,289,0.0,0.0,87,0.00,,---,0.00,VWS V14.00,2013-03-09 05:45:00,
2013-03-09 00:46:00,50.7,47.0,30.15,WNW,289,0.0,0.0,87,0.00,,---,0.00,VWS V14.00,2013-03-09 05:46:00,
2013-03-09 00:50:00,50.4,46.7,30.14,WNW,289,0.0,0.0,87,0.00,,---,0.00,VWS V14.00,2013-03-09 05:50:00,
2013-03-09 00:51:00,50.8,46.8,30.16,WNW,289,0.0,0.0,86,0.00,,---,0.00,VWS V14.00,2013-03-09 05:51:00,
2013-03-09 00:55:00,50.4,46.7,30.13,WNW,289,0.0,0.0,87,0.00,,---,0.00,VWS V14.00,2013-03-09 05:55:00,
2013-03-09 00:56:00,50.8,46.8,30.16,WNW,289,0.0,0.0,86,0.00,,---,0.00,VWS V14.00,2013-03-09 05:56:00,
2013-03-09 01:00:00,50.4,46.4,30.13,WNW,289,0.0,0.0,86,0.00,,---,0.00,VWS V14.00,2013-03-09 06:00:00,
2013-03-09 01:01:00,50.7,46.7,30.16,WNW,289,0.0,0.0,86,0.00,,---,0.00,VWS V14.00,2013-03-09 06:01:00,
2013-03-09 01:05:00,50.3,46.3,30.13,WNW,289,0.0,0.0,86,0.00,,---,0.00,VWS V14.00,2013-03-09 06:05:00,
2013-03-09 01:06:00,50.6,46.6,30.16,WNW,289,0.0,0.0,86,0.00,,---,0.00,VWS V14.00,2013-03-09 06:06:00,
2013-03-09 01:10:00,50.3,46.3,30.13,WNW,289,0.0,0.0,86,0.00,,---,0.00,VWS V14.00,2013-03-09 06:10:00,
2013-03-09 01:11:00,50.6,46.6,30.16,WNW,289,0.0,0.0,86,0.00,,---,0.00,VWS V14.00,2013-03-09 06:11:00,
2013-03-09 01:15:00,50.1,46.4,30.13,WNW,289,0.0,0.0,87,0.00,,---,0.00,VWS V14.00,2013-03-09 06:15:00,
2013-03-09 01:16:00,50.5,46.5,30.15,WNW,289,0.0,0.0,86,0.00,,---,0.00,VWS V14.00,2013-03-09 06:16:00,
2013-03-09 01:20:00,50.0,46.3,30.13,WNW,289,0.0,0.0,87,0.00,,---,0.00,VWS V14.00,2013-03-09 06:20:00,
2013-03-09 01:21:00,50.4,46.7,30.15,WNW,289,0.0,0.0,87,0.00,,---,0.00,VWS V14.00,2013-03-09 06:21:00,
2013-03-09 01:25:00,49.9,46.2,30.13,WNW,289,0.0,0.0,87,0.00,,---,0.00,VWS V14.00,2013-03-09 06:25:00,
2013-03-09 01:26:00,50.3,46.6,30.15,WNW,289,0.0,0.0,87,0.00,,---,0.00,VWS V14.00,2013-03-09 06:26:00,
2013-03-09 01:30:00,49.7,46.0,30.13,WNW,289,0.0,0.0,87,0.00,,---,0.00,VWS V14.00,2013-03-09 06:30:00,
2013-03-09 01:31:00,50.3,46.6,30.15,WNW,289,0.0,0.0,87,0.00,,---,0.00,VWS V14.00,2013-03-09 06:31:00,
2013-03-09 01:35:00,49.5,46.1,30.13,WNW,289,0.0,0.0,88,0.00,,---,0.00,VWS V14.00,2013-03-09 06:35:00,
2013-03-09 01:36:00,50.3,46.6,30.15,WNW,289,0.0,0.0,87,0.00,,---,0.00,VWS V14.00,2013-03-09 06:36:00,
2013-03-09 01:40:00,49.4,46.0,30.13,WNW,289,0.0,0.0,88,0.00,,---,0.00,VWS V14.00,2013-03-09 06:40:00,
2013-03-09 01:41:00,50.3,46.6,30.14,WNW,289,0.0,0.0,87,0.00,,---,0.00,VWS V14.00,2013-03-09 06:41:00,
2013-03-09 01:45:00,49.3,46.2,30.13,WNW,289,0.0,0.0,89,0.00,,---,0.00,VWS V14.00,2013-03-09 06:45:00,
2013-03-09 01:46:00,50.4,46.7,30.14,WNW,289,0.0,0.0,87,0.00,,---,0.00,VWS V14.00,2013-03-09 06:46:00,
2013-03-09 01:50:00,49.3,46.5,30.13,WNW,289,0.0,0.0,90,0.00,,---,0.00,VWS V14.00,2013-03-09 06:50:00,
2013-03-09 01:51:00,50.4,46.7,30.13,WNW,289,0.0,0.0,87,0.00,,---,0.00,VWS V14.00,2013-03-09 06:51:00,
2013-03-09 01:55:00,49.4,46.6,30.12,WNW,289,0.0,0.0,90,0.00,,---,0.00,VWS V14.00,2013-03-09 06:55:00,
2013-03-09 01:56:00,50.4,46.7,30.14,WNW,289,0.0,0.0,87,0.00,,---,0.00,VWS V14.00,2013-03-09 06:56:00,
2013-03-09 02:00:00,49.3,46.5,30.13,WNW,289,0.0,0.0,90,0.00,,---,0.00,VWS V14.00,2013-03-09 07:00:00,
2013-03-09 02:01:00,50.4,46.4,30.13,WNW,289,0.0,0.0,86,0.00,,---,0.00,VWS V14.00,2013-03-09 07:01:00,
2013-03-09 02:05:00,49.3,46.8,30.13,WNW,289,0.0,0.0,91,0.00,,---,0.00,VWS V14.00,2013-03-09 07:05:00,
2013-03-09 02:06:00,50.3,46.6,30.13,WNW,289,0.0,0.0,87,0.00,,---,0.00,VWS V14.00,2013-03-09 07:06:00,
2013-03-09 02:10:00,49.1,46.6,30.13,WNW,289,0.0,0.0,91,0.00,,---,0.00,VWS V14.00,2013-03-09 07:10:00,
2013-03-09 02:11:00,50.2,46.5,30.13,WNW,289,0.0,0.0,87,0.00,,---,0.00,VWS V14.00,2013-03-09 07:11:00,
2013-03-09 02:15:00,49.0,46.5,30.12,WNW,289,0.0,0.0,91,0.00,,---,0.00,VWS V14.00,2013-03-09 07:15:00,
2013-03-09 02:16:00,50.1,46.4,30.13,WNW,289,0.0,0.0,87,0.00,,---,0.00,VWS V14.00,2013-03-09 07:16:00,
2013-03-09 02:20:00,48.9,46.4,30.12,WNW,289,0.0,0.0,91,0.00,,---,0.00,VWS V14.00,2013-03-09 07:20:00,
2013-03-09 02:21:00,50.0,46.3,30.13,WNW,289,0.0,0.0,87,0.00,,---,0.00,VWS V14.00,2013-03-09 07:21:00,
2013-03-09 02:25:00,48.9,46.7,30.12,WNW,289,0.0,0.0,92,0.00,,---,0.00,VWS V14.00,2013-03-09 07:25:00,
2013-03-09 02:26:00,49.8,46.1,30.13,WNW,289,0.0,0.0,87,0.00,,---,0.00,VWS V14.00,2013-03-09 07:26:00,
2013-03-09 02:30:00,48.9,46.7,30.12,WNW,289,0.0,0.0,92,0.00,,---,0.00,VWS V14.00,2013-03-09 07:30:00,
2013-03-09 02:31:00,49.6,45.9,30.13,WNW,289,0.0,0.0,87,0.00,,---,0.00,VWS V14.00,2013-03-09 07:31:00,
2013-03-09 02:35:00,48.8,46.6,30.12,WNW,289,0.0,0.0,92,0.00,,---,0.00,VWS V14.00,2013-03-09 07:35:00,
2013-03-09 02:36:00,49.5,46.1,30.13,WNW,289,0.0,0.0,88,0.00,,---,0.00,VWS V14.00,2013-03-09 07:36:00,
2013-03-09 02:40:00,48.7,46.5,30.12,WNW,289,0.0,0.0,92,0.00,,---,0.00,VWS V14.00,2013-03-09 07:40:00,
2013-03-09 02:41:00,49.4,46.3,30.13,WNW,289,0.0,0.0,89,0.00,,---,0.00,VWS V14.00,2013-03-09 07:41:00,
2013-03-09 02:45:00,48.6,46.4,30.12,WNW,289,0.0,0.0,92,0.00,,---,0.00,VWS V14.00,2013-03-09 07:45:00,
2013-03-09 02:46:00,49.4,46.6,30.13,WNW,289,0.0,0.0,90,0.00,,---,0.00,VWS V14.00,2013-03-09 07:46:00,
2013-03-09 02:50:00,48.5,46.3,30.12,WNW,289,0.0,0.0,92,0.00,,---,0.00,VWS V14.00,2013-03-09 07:50:00,
2013-03-09 02:51:00,49.4,46.6,30.12,WNW,289,0.0,0.0,90,0.00,,---,0.00,VWS V14.00,2013-03-09 07:51:00,
2013-03-09 02:55:00,48.4,46.2,30.12,WNW,289,0.0,0.0,92,0.00,,---,0.00,VWS V14.00,2013-03-09 07:55:00,
2013-03-09 02:56:00,49.4,46.6,30.13,WNW,289,0.0,0.0,90,0.00,,---,0.00,VWS V14.00,2013-03-09 07:56:00,
2013-03-09 03:00:00,48.3,46.1,30.12,WNW,289,0.0,0.0,92,0.00,,---,0.00,VWS V14.00,2013-03-09 08:00:00,
2013-03-09 03:01:00,49.3,46.5,30.13,WNW,289,0.0,0.0,90,0.00,,---,0.00,VWS V14.00,2013-03-09 08:01:00,
2013-03-09 03:05:00,48.2,46.3,30.12,WNW,289,0.0,0.0,93,0.00,,---,0.00,VWS V14.00,2013-03-09 08:05:00,
2013-03-09 03:06:00,49.2,46.7,30.13,WNW,289,0.0,0.0,91,0.00,,---,0.00,VWS V14.00,2013-03-09 08:06:00,
2013-03-09 03:10:00,48.2,46.3,30.12,WNW,289,0.0,0.0,93,0.00,,---,0.00,VWS V14.00,2013-03-09 08:10:00,
2013-03-09 03:11:00,49.1,46.6,30.12,WNW,289,0.0,0.0,91,0.00,,---,0.00,VWS V14.00,2013-03-09 08:11:00,
2013-03-09 03:15:00,48.2,46.3,30.12,WNW,289,0.0,0.0,93,0.00,,---,0.00,VWS V14.00,2013-03-09 08:15:00,
2013-03-09 03:16:00,49.0,46.5,30.12,WNW,289,0.0,0.0,91,0.00,,---,0.00,VWS V14.00,2013-03-09 08:16:00,
2013-03-09 03:20:00,48.1,46.2,30.12,WNW,289,0.0,0.0,93,0.00,,---,0.00,VWS V14.00,2013-03-09 08:20:00,
2013-03-09 03:21:00,48.9,46.7,30.12,WNW,289,0.0,0.0,92,0.00,,---,0.00,VWS V14.00,2013-03-09 08:21:00,
2013-03-09 03:25:00,48.1,46.2,30.12,WNW,289,0.0,0.0,93,0.00,,---,0.00,VWS V14.00,2013-03-09 08:25:00,
2013-03-09 03:26:00,48.9,46.7,30.12,WNW,289,0.0,0.0,92,0.00,,---,0.00,VWS V14.00,2013-03-09 08:26:00,
2013-03-09 03:30:00,48.0,46.1,30.13,WNW,289,0.0,0.0,93,0.00,,---,0.00,VWS V14.00,2013-03-09 08:30:00,
2013-03-09 03:31:00,48.9,46.7,30.12,WNW,289,0.0,0.0,92,0.00,,---,0.00,VWS V14.00,2013-03-09 08:31:00,
2013-03-09 03:35:00,47.9,46.0,30.12,WNW,289,0.0,0.0,93,0.00,,---,0.00,VWS V14.00,2013-03-09 08:35:00,
2013-03-09 03:36:00,48.8,46.6,30.11,WNW,289,0.0,0.0,92,0.00,,---,0.00,VWS V14.00,2013-03-09 08:36:00,
2013-03-09 03:40:00,47.7,45.5,30.12,WNW,289,0.0,0.0,92,0.00,,---,0.00,VWS V14.00,2013-03-09 08:40:00,
2013-03-09 03:41:00,48.7,46.5,30.12,WNW,289,0.0,0.0,92,0.00,,---,0.00,VWS V14.00,2013-03-09 08:41:00,
2013-03-09 03:45:00,47.6,45.7,30.12,WNW,289,0.0,0.0,93,0.00,,---,0.00,VWS V14.00,2013-03-09 08:45:00,
2013-03-09 03:46:00,48.6,46.4,30.12,WNW,289,0.0,0.0,92,0.00,,---,0.00,VWS V14.00,2013-03-09 08:46:00,
2013-03-09 03:50:00,47.4,45.5,30.13,WNW,289,0.0,0.0,93,0.00,,---,0.00,VWS V14.00,2013-03-09 08:50:00,
2013-03-09 03:51:00,48.5,46.3,30.12,WNW,289,0.0,0.0,92,0.00,,---,0.00,VWS V14.00,2013-03-09 08:51:00,
2013-03-09 03:55:00,47.3,45.4,30.12,WNW,289,0.0,0.0,93,0.00,,---,0.00,VWS V14.00,2013-03-09 08:55:00,
2013-03-09 03:56:00,48.3,46.1,30.12,WNW,289,0.0,0.0,92,0.00,,---,0.00,VWS V14.00,2013-03-09 08:56:00,
2013-03-09 04:00:00,47.1,44.9,30.13,WNW,289,0.0,0.0,92,0.00,,---,0.00,VWS V14.00,2013-03-09 09:00:00,
2013-03-09 04:01:00,48.2,46.0,30.12,WNW,289,0.0,0.0,92,0.00,,---,0.00,VWS V14.00,2013-03-09 09:01:00,
2013-03-09 04:05:00,46.9,44.7,30.13,WNW,289,0.0,0.0,92,0.00,,---,0.00,VWS V14.00,2013-03-09 09:05:00,
2013-03-09 04:06:00,48.2,46.3,30.12,WNW,289,0.0,0.0,93,0.00,,---,0.00,VWS V14.00,2013-03-09 09:06:00,
2013-03-09 04:10:00,46.8,44.9,30.13,WNW,289,0.0,0.0,93,0.00,,---,0.00,VWS V14.00,2013-03-09 09:10:00,
2013-03-09 04:11:00,48.2,46.3,30.12,WNW,289,0.0,0.0,93,0.00,,---,0.00,VWS V14.00,2013-03-09 09:11:00,
2013-03-09 04:15:00,46.6,44.7,30.13,WNW,289,0.0,0.0,93,0.00,,---,0.00,VWS V14.00,2013-03-09 09:15:00,
2013-03-09 04:16:00,48.2,46.3,30.12,WNW,289,0.0,0.0,93,0.00,,---,0.00,VWS V14.00,2013-03-09 09:16:00,
2013-03-09 04:20:00,46.3,44.4,30.13,WNW,289,0.0,0.0,93,0.00,,---,0.00,VWS V14.00,2013-03-09 09:20:00,
2013-03-09 04:21:00,48.1,46.2,30.12,WNW,289,0.0,0.0,93,0.00,,---,0.00,VWS V14.00,2013-03-09 09:21:00,
2013-03-09 04:25:00,46.1,44.2,30.13,WNW,289,0.0,0.0,93,0.00,,---,0.00,VWS V14.00,2013-03-09 09:25:00,
2013-03-09 04:26:00,48.1,46.2,30.13,WNW,289,0.0,0.0,93,0.00,,---,0.00,VWS V14.00,2013-03-09 09:26:00,
2013-03-09 04:30:00,45.9,44.0,30.14,WNW,289,0.0,0.0,93,0.00,,---,0.00,VWS V14.00,2013-03-09 09:30:00,
2013-03-09 04:31:00,48.0,46.1,30.13,WNW,289,0.0,0.0,93,0.00,,---,0.00,VWS V14.00,2013-03-09 09:31:00,
2013-03-09 04:35:00,45.8,43.9,30.14,WNW,289,0.0,0.0,93,0.00,,---,0.00,VWS V14.00,2013-03-09 09:35:00,
2013-03-09 04:36:00,47.8,45.9,30.12,WNW,289,0.0,0.0,93,0.00,,---,0.00,VWS V14.00,2013-03-09 09:36:00,
2013-03-09 04:40:00,45.7,43.8,30.15,WNW,289,0.0,0.0,93,0.00,,---,0.00,VWS V14.00,2013-03-09 09:40:00,
2013-03-09 04:41:00,47.7,45.5,30.12,WNW,289,0.0,0.0,92,0.00,,---,0.00,VWS V14.00,2013-03-09 09:41:00,
2013-03-09 04:45:00,45.5,43.6,30.15,WNW,289,0.0,0.0,93,0.00,,---,0.00,VWS V14.00,2013-03-09 09:45:00,
2013-03-09 04:46:00,47.5,45.6,30.12,WNW,289,0.0,0.0,93,0.00,,---,0.00,VWS V14.00,2013-03-09 09:46:00,
2013-03-09 04:50:00,45.5,43.9,30.15,WNW,289,0.0,0.0,94,0.00,,---,0.00,VWS V14.00,2013-03-09 09:50:00,
2013-03-09 04:51:00,47.4,45.5,30.12,WNW,289,0.0,0.0,93,0.00,,---,0.00,VWS V14.00,2013-03-09 09:51:00,
2013-03-09 04:55:00,45.4,43.8,30.15,WNW,289,0.0,0.0,94,0.00,,---,0.00,VWS V14.00,2013-03-09 09:55:00,
2013-03-09 04:56:00,47.2,45.3,30.13,WNW,289,0.0,0.0,93,0.00,,---,0.00,VWS V14.00,2013-03-09 09:56:00,
2013-03-09 05:00:00,45.3,43.7,30.15,WNW,289,0.0,0.0,94,0.00,,---,0.00,VWS V14.00,2013-03-09 10:00:00,
2013-03-09 05:01:00,47.0,45.1,30.13,WNW,289,0.0,0.0,93,0.00,,---,0.00,VWS V14.00,2013-03-09 10:01:00,
2013-03-09 05:05:00,45.2,43.6,30.15,WNW,289,0.0,0.0,94,0.00,,---,0.00,VWS V14.00,2013-03-09 10:05:00,
2013-03-09 05:06:00,46.9,45.0,30.13,WNW,289,0.0,0.0,93,0.00,,---,0.00,VWS V14.00,2013-03-09 10:06:00,
2013-03-09 05:10:00,45.2,43.6,30.15,WNW,289,0.0,0.0,94,0.00,,---,0.00,VWS V14.00,2013-03-09 10:10:00,
2013-03-09 05:11:00,46.7,44.8,30.13,WNW,289,0.0,0.0,93,0.00,,---,0.00,VWS V14.00,2013-03-09 10:11:00,
2013-03-09 05:15:00,45.0,43.4,30.15,WNW,289,0.0,0.0,94,0.00,,---,0.00,VWS V14.00,2013-03-09 10:15:00,
2013-03-09 05:16:00,46.5,44.6,30.13,WNW,289,0.0,0.0,93,0.00,,---,0.00,VWS V14.00,2013-03-09 10:16:00,
2013-03-09 05:20:00,44.9,43.3,30.15,WNW,289,0.0,0.0,94,0.00,,---,0.00,VWS V14.00,2013-03-09 10:20:00,
2013-03-09 05:21:00,46.3,44.4,30.13,WNW,289,0.0,0.0,93,0.00,,---,0.00,VWS V14.00,2013-03-09 10:21:00,
2013-03-09 05:25:00,45.1,43.8,30.15,WNW,289,0.0,0.0,95,0.00,,---,0.00,VWS V14.00,2013-03-09 10:25:00,
2013-03-09 05:26:00,46.1,44.2,30.14,WNW,289,0.0,0.0,93,0.00,,---,0.00,VWS V14.00,2013-03-09 10:26:00,
2013-03-09 05:30:00,45.1,43.8,30.15,WNW,289,0.0,0.0,95,0.00,,---,0.00,VWS V14.00,2013-03-09 10:30:00,
2013-03-09 05:31:00,45.9,44.0,30.14,WNW,289,0.0,0.0,93,0.00,,---,0.00,VWS V14.00,2013-03-09 10:31:00,
2013-03-09 05:35:00,45.1,43.8,30.15,WNW,289,0.0,0.0,95,0.00,,---,0.00,VWS V14.00,2013-03-09 10:35:00,
2013-03-09 05:36:00,45.8,43.9,30.14,WNW,289,0.0,0.0,93,0.00,,---,0.00,VWS V14.00,2013-03-09 10:36:00,
2013-03-09 05:40:00,45.1,43.8,30.15,WNW,289,0.0,0.0,95,0.00,,---,0.00,VWS V14.00,2013-03-09 10:40:00,
2013-03-09 05:41:00,45.6,43.7,30.15,WNW,289,0.0,0.0,93,0.00,,---,0.00,VWS V14.00,2013-03-09 10:41:00,
2013-03-09 05:45:00,45.0,43.7,30.15,WNW,289,0.0,0.0,95,0.00,,---,0.00,VWS V14.00,2013-03-09 10:45:00,
2013-03-09 05:46:00,45.5,43.9,30.15,WNW,289,0.0,0.0,94,0.00,,---,0.00,VWS V14.00,2013-03-09 10:46:00,
2013-03-09 05:50:00,45.0,43.7,30.14,WNW,289,0.0,0.0,95,0.00,,---,0.00,VWS V14.00,2013-03-09 10:50:00,
2013-03-09 05:51:00,45.4,43.8,30.15,WNW,289,0.0,0.0,94,0.00,,---,0.00,VWS V14.00,2013-03-09 10:51:00,
2013-03-09 05:55:00,45.2,44.1,30.15,WNW,289,0.0,0.0,96,0.00,,---,0.00,VWS V14.00,2013-03-09 10:55:00,
2013-03-09 05:56:00,45.3,43.7,30.14,WNW,289,0.0,0.0,94,0.00,,---,0.00,VWS V14.00,2013-03-09 10:56:00,
2013-03-09 06:00:00,46.1,45.0,30.15,WNW,289,0.0,0.0,96,0.00,,---,0.00,VWS V14.00,2013-03-09 11:00:00,
2013-03-09 06:01:00,45.3,43.7,30.15,WNW,289,0.0,0.0,94,0.00,,---,0.00,VWS V14.00,2013-03-09 11:01:00,
2013-03-09 06:05:00,47.1,46.3,30.15,WNW,289,0.0,0.0,97,0.00,,---,0.00,VWS V14.00,2013-03-09 11:05:00,
2013-03-09 06:06:00,45.2,43.6,30.15,WNW,289,0.0,0.0,94,0.00,,---,0.00,VWS V14.00,2013-03-09 11:06:00,
2013-03-09 06:10:00,47.7,46.9,30.16,WNW,299,2.0,5.0,97,0.00,,---,0.00,VWS V14.00,2013-03-09 11:10:00,
2013-03-09 06:11:00,45.1,43.5,30.15,WNW,289,0.0,0.0,94,0.00,,---,0.00,VWS V14.00,2013-03-09 11:11:00,
2013-03-09 06:15:00,48.3,47.2,30.16,WNW,301,2.0,5.0,96,0.00,,---,0.00,VWS V14.00,2013-03-09 11:15:00,
2013-03-09 06:16:00,45.0,43.4,30.15,WNW,289,0.0,0.0,94,0.00,,---,0.00,VWS V14.00,2013-03-09 11:16:00,
2013-03-09 06:20:00,48.8,47.2,30.16,NW,319,0.0,5.0,94,0.00,,---,0.00,VWS V14.00,2013-03-09 11:20:00,
2013-03-09 06:21:00,45.0,43.7,30.15,WNW,289,0.0,0.0,95,0.00,,---,0.00,VWS V14.00,2013-03-09 11:21:00,
2013-03-09 06:25:00,49.2,47.3,30.16,NNE,19,2.0,6.0,93,0.00,,---,0.00,VWS V14.00,2013-03-09 11:25:00,
2013-03-09 06:26:00,45.1,43.8,30.15,WNW,289,0.0,0.0,95,0.00,,---,0.00,VWS V14.00,2013-03-09 11:26:00,
2013-03-09 06:30:00,49.8,47.3,30.16,NNE,19,0.0,6.0,91,0.00,,---,0.00,VWS V14.00,2013-03-09 11:30:00,
2013-03-09 06:31:00,45.1,43.8,30.15,WNW,289,0.0,0.0,95,0.00,,---,0.00,VWS V14.00,2013-03-09 11:31:00,
2013-03-09 06:35:00,50.4,47.6,30.16,NNE,19,2.0,6.0,90,0.00,,---,0.00,VWS V14.00,2013-03-09 11:35:00,
2013-03-09 06:36:00,45.0,43.7,30.15,WNW,289,0.0,0.0,95,0.00,,---,0.00,VWS V14.00,2013-03-09 11:36:00,
2013-03-09 06:40:00,51.0,47.6,30.17,NNE,18,4.0,6.0,88,0.00,,---,0.00,VWS V14.00,2013-03-09 11:40:00,
2013-03-09 06:41:00,45.0,43.7,30.14,WNW,289,0.0,0.0,95,0.00,,---,0.00,VWS V14.00,2013-03-09 11:41:00,
2013-03-09 06:45:00,51.7,48.0,30.17,NNE,17,0.0,6.0,87,0.00,,---,0.00,VWS V14.00,2013-03-09 11:45:00,
2013-03-09 06:46:00,45.0,43.7,30.15,WNW,289,0.0,0.0,95,0.00,,---,0.00,VWS V14.00,2013-03-09 11:46:00,
2013-03-09 06:50:00,52.2,48.2,30.17,NNE,17,0.0,4.0,86,0.00,,---,0.00,VWS V14.00,2013-03-09 11:50:00,
2013-03-09 06:51:00,45.1,43.8,30.15,WNW,289,0.0,0.0,95,0.00,,---,0.00,VWS V14.00,2013-03-09 11:51:00,
2013-03-09 06:55:00,52.9,48.2,30.17,NNE,17,2.0,5.0,84,0.00,,---,0.00,VWS V14.00,2013-03-09 11:55:00,
2013-03-09 06:56:00,45.5,44.4,30.15,WNW,289,0.0,0.0,96,0.00,,---,0.00,VWS V14.00,2013-03-09 11:56:00,
2013-03-09 07:00:00,53.7,48.7,30.17,NNE,13,0.0,6.0,83,0.00,,---,0.00,VWS V14.00,2013-03-09 12:00:00,
2013-03-09 07:01:00,46.5,45.7,30.16,WNW,289,0.0,0.0,97,0.00,,---,0.00,VWS V14.00,2013-03-09 12:01:00,
2013-03-09 07:05:00,54.4,48.7,30.18,NNE,13,4.0,6.0,81,0.00,,---,0.00,VWS V14.00,2013-03-09 12:05:00,
2013-03-09 07:06:00,47.3,46.5,30.15,WNW,290,3.0,4.0,97,0.00,,---,0.00,VWS V14.00,2013-03-09 12:06:00,
2013-03-09 07:10:00,55.1,49.4,30.18,NNE,13,0.0,5.0,81,0.00,,---,0.00,VWS V14.00,2013-03-09 12:10:00,
2013-03-09 07:11:00,47.9,46.8,30.16,WNW,300,0.0,4.0,96,0.00,,---,0.00,VWS V14.00,2013-03-09 12:11:00,
2013-03-09 07:15:00,55.8,49.7,30.18,North,11,4.0,7.0,80,0.00,,---,0.00,VWS V14.00,2013-03-09 12:15:00,
2013-03-09 07:16:00,48.4,47.0,30.16,NW,304,5.0,5.0,95,0.00,,---,0.00,VWS V14.00,2013-03-09 12:16:00,
2013-03-09 07:20:00,56.5,49.4,30.18,NNE,15,2.0,8.0,77,0.00,,---,0.00,VWS V14.00,2013-03-09 12:20:00,
2013-03-09 07:21:00,48.9,47.0,30.16,NW,319,0.0,2.0,93,0.00,,---,0.00,VWS V14.00,2013-03-09 12:21:00,
2013-03-09 07:25:00,57.2,50.1,30.18,NNE,19,6.0,7.0,77,0.00,,---,0.00,VWS V14.00,2013-03-09 12:25:00,
2013-03-09 07:26:00,49.4,47.2,30.16,NNE,20,0.0,5.0,92,0.00,,---,0.00,VWS V14.00,2013-03-09 12:26:00,
2013-03-09 07:30:00,57.9,50.0,30.18,NNE,19,0.0,6.0,75,0.00,,---,0.00,VWS V14.00,2013-03-09 12:30:00,
2013-03-09 07:31:00,50.0,47.5,30.16,NNE,19,0.0,0.0,91,0.00,,---,0.00,VWS V14.00,2013-03-09 12:31:00,
2013-03-09 07:35:00,58.7,50.5,30.18,NNE,19,1.0,6.0,74,0.00,,---,0.00,VWS V14.00,2013-03-09 12:35:00,
2013-03-09 07:36:00,50.6,47.5,30.17,NNE,19,1.0,6.0,89,0.00,,---,0.00,VWS V14.00,2013-03-09 12:36:00,
2013-03-09 07:40:00,59.9,51.6,30.18,NNE,21,0.0,1.0,74,0.00,,---,0.00,VWS V14.00,2013-03-09 12:40:00,
2013-03-09 07:41:00,51.2,47.5,30.17,NNE,17,4.0,6.0,87,0.00,,---,0.00,VWS V14.00,2013-03-09 12:41:00,
2013-03-09 07:45:00,60.9,51.8,30.18,NNE,21,0.0,5.0,72,0.00,,---,0.00,VWS V14.00,2013-03-09 12:45:00,
2013-03-09 07:46:00,51.8,48.1,30.17,NNE,17,3.0,3.0,87,0.00,,---,0.00,VWS V14.00,2013-03-09 12:46:00,
2013-03-09 07:50:00,62.2,52.7,30.18,NNE,25,0.0,5.0,71,0.00,,---,0.00,VWS V14.00,2013-03-09 12:50:00,
2013-03-09 07:51:00,52.4,48.3,30.16,NNE,17,5.0,5.0,86,0.00,,---,0.00,VWS V14.00,2013-03-09 12:51:00,
2013-03-09 07:55:00,63.5,52.4,30.18,ENE,67,1.0,8.0,67,0.00,,---,0.00,VWS V14.00,2013-03-09 12:55:00,
2013-03-09 07:56:00,53.2,48.5,30.17,NNE,13,4.0,6.0,84,0.00,,---,0.00,VWS V14.00,2013-03-09 12:56:00,
2013-03-09 08:00:00,64.4,51.5,30.18,ENE,67,5.0,8.0,63,0.00,,---,0.00,VWS V14.00,2013-03-09 13:00:00,
2013-03-09 08:01:00,53.9,48.9,30.17,NNE,13,0.0,4.0,83,0.00,,---,0.00,VWS V14.00,2013-03-09 13:01:00,
2013-03-09 08:05:00,64.9,51.6,30.18,NE,44,0.0,9.0,62,0.00,,---,0.00,VWS V14.00,2013-03-09 13:05:00,
2013-03-09 08:06:00,54.6,48.9,30.18,NNE,13,2.0,4.0,81,0.00,,---,0.00,VWS V14.00,2013-03-09 13:06:00,
2013-03-09 08:10:00,65.7,53.2,30.18,NE,46,4.0,6.0,64,0.00,,---,0.00,VWS V14.00,2013-03-09 13:10:00,
2013-03-09 08:11:00,55.3,49.2,30.18,NNE,13,5.0,5.0,80,0.00,,---,0.00,VWS V14.00,2013-03-09 13:11:00,
2013-03-09 08:15:00,65.8,52.9,30.18,ENE,58,5.0,6.0,63,0.00,,---,0.00,VWS V14.00,2013-03-09 13:15:00,
2013-03-09 08:16:00,56.0,49.6,30.18,NNE,13,5.0,6.0,79,0.00,,---,0.00,VWS V14.00,2013-03-09 13:16:00,
2013-03-09 08:20:00,66.1,52.7,30.19,NNE,22,0.0,8.0,62,0.00,,---,0.00,VWS V14.00,2013-03-09 13:20:00,
2013-03-09 08:21:00,56.7,49.6,30.18,North,11,2.0,7.0,77,0.00,,---,0.00,VWS V14.00,2013-03-09 13:21:00,
2013-03-09 08:25:00,66.3,52.9,30.18,NE,48,0.0,6.0,62,0.00,,---,0.00,VWS V14.00,2013-03-09 13:25:00,
2013-03-09 08:26:00,57.4,49.9,30.18,NNE,19,0.0,6.0,76,0.00,,---,0.00,VWS V14.00,2013-03-09 13:26:00,
2013-03-09 08:30:00,66.7,52.8,30.19,NE,38,0.0,6.0,61,0.00,,---,0.00,VWS V14.00,2013-03-09 13:30:00,
2013-03-09 08:31:00,58.1,50.2,30.18,NNE,19,0.0,0.0,75,0.00,,---,0.00,VWS V14.00,2013-03-09 13:31:00,
2013-03-09 08:35:00,67.4,53.0,30.19,ENE,61,5.0,5.0,60,0.00,,---,0.00,VWS V14.00,2013-03-09 13:35:00,
2013-03-09 08:36:00,59.1,50.8,30.18,NNE,21,0.0,1.0,74,0.00,,---,0.00,VWS V14.00,2013-03-09 13:36:00,
2013-03-09 08:40:00,68.5,53.2,30.19,ENE,62,7.0,7.0,58,0.00,,---,0.00,VWS V14.00,2013-03-09 13:40:00,
2013-03-09 08:41:00,60.3,51.2,30.18,NNE,21,0.0,5.0,72,0.00,,---,0.00,VWS V14.00,2013-03-09 13:41:00,
2013-03-09 08:45:00,69.1,52.3,30.19,NNE,32,6.0,7.0,55,0.00,,---,0.00,VWS V14.00,2013-03-09 13:45:00,
2013-03-09 08:46:00,61.2,51.7,30.18,NNE,23,0.0,5.0,71,0.00,,---,0.00,VWS V14.00,2013-03-09 13:46:00,
2013-03-09 08:50:00,68.8,53.0,30.18,ENE,68,2.0,8.0,57,0.00,,---,0.00,VWS V14.00,2013-03-09 13:50:00,
2013-03-09 08:51:00,62.7,52.4,30.18,NNE,27,2.0,4.0,69,0.00,,---,0.00,VWS V14.00,2013-03-09 13:51:00,
2013-03-09 08:55:00,69.3,52.0,30.18,NE,44,0.0,7.0,54,0.00,,---,0.00,VWS V14.00,2013-03-09 13:55:00,
2013-03-09 08:56:00,63.9,52.3,30.18,ENE,61,6.0,6.0,66,0.00,,---,0.00,VWS V14.00,2013-03-09 13:56:00,
2013-03-09 09:00:00,69.9,52.0,30.18,NE,54,3.0,6.0,53,0.00,,---,0.00,VWS V14.00,2013-03-09 14:00:00,
2013-03-09 09:01:00,64.5,52.1,30.18,ENE,57,2.0,9.0,64,0.00,,---,0.00,VWS V14.00,2013-03-09 14:01:00,
2013-03-09 09:05:00,70.4,52.0,30.18,NE,51,1.0,6.0,52,0.00,,---,0.00,VWS V14.00,2013-03-09 14:05:00,
2013-03-09 09:06:00,65.1,52.2,30.18,NE,53,3.0,6.0,63,0.00,,---,0.00,VWS V14.00,2013-03-09 14:06:00,
2013-03-09 09:10:00,71.1,51.0,30.18,NE,51,0.0,9.0,49,0.00,,---,0.00,VWS V14.00,2013-03-09 14:10:00,
2013-03-09 09:11:00,65.7,51.9,30.18,NE,41,0.0,6.0,61,0.00,,---,0.00,VWS V14.00,2013-03-09 14:11:00,
2013-03-09 09:15:00,71.4,52.3,30.18,ENE,71,0.0,6.0,51,0.00,,---,0.00,VWS V14.00,2013-03-09 14:15:00,
2013-03-09 09:16:00,65.9,52.1,30.18,NNE,22,1.0,8.0,61,0.00,,---,0.00,VWS V14.00,2013-03-09 14:16:00,
2013-03-09 09:20:00,71.5,51.9,30.18,East,83,5.0,7.0,50,0.00,,---,0.00,VWS V14.00,2013-03-09 14:20:00,
2013-03-09 09:21:00,66.2,52.4,30.19,NE,54,2.0,5.0,61,0.00,,---,0.00,VWS V14.00,2013-03-09 14:21:00,
2013-03-09 09:25:00,72.2,50.9,30.18,East,87,6.0,8.0,47,0.00,,---,0.00,VWS V14.00,2013-03-09 14:25:00,
2013-03-09 09:26:00,66.5,52.2,30.19,NE,38,0.0,6.0,60,0.00,,---,0.00,VWS V14.00,2013-03-09 14:26:00,
2013-03-09 09:30:00,72.6,49.5,30.18,ENE,69,0.0,9.0,44,0.00,,---,0.00,VWS V14.00,2013-03-09 14:30:00,
2013-03-09 09:31:00,67.0,53.1,30.19,NE,40,0.0,0.0,61,0.00,,---,0.00,VWS V14.00,2013-03-09 14:31:00,
2013-03-09 09:35:00,72.6,47.6,30.18,ENE,67,2.0,9.0,41,0.00,,---,0.00,VWS V14.00,2013-03-09 14:35:00,
2013-03-09 09:36:00,67.7,53.8,30.19,ENE,63,0.0,5.0,61,0.00,,---,0.00,VWS V14.00,2013-03-09 14:36:00,
2013-03-09 09:40:00,73.1,48.7,30.18,East,94,0.0,8.0,42,0.00,,---,0.00,VWS V14.00,2013-03-09 14:40:00,
2013-03-09 09:41:00,68.8,53.0,30.19,ENE,62,3.0,7.0,57,0.00,,---,0.00,VWS V14.00,2013-03-09 14:41:00,
2013-03-09 09:45:00,73.5,50.3,30.18,ESE,115,6.0,7.0,44,0.00,,---,0.00,VWS V14.00,2013-03-09 14:45:00,
2013-03-09 09:46:00,69.0,52.2,30.19,NE,51,4.0,7.0,55,0.00,,---,0.00,VWS V14.00,2013-03-09 14:46:00,
2013-03-09 09:50:00,73.9,49.4,30.18,ESE,117,4.0,8.0,42,0.00,,---,0.00,VWS V14.00,2013-03-09 14:50:00,
2013-03-09 09:51:00,68.9,52.1,30.18,ENE,77,5.0,7.0,55,0.00,,---,0.00,VWS V14.00,2013-03-09 14:51:00,
2013-03-09 09:55:00,74.8,48.9,30.18,ENE,73,0.0,9.0,40,0.00,,---,0.00,VWS V14.00,2013-03-09 14:55:00,
2013-03-09 09:56:00,69.5,53.1,30.18,ENE,76,4.0,6.0,56,0.00,,---,0.00,VWS V14.00,2013-03-09 14:56:00,
2013-03-09 10:00:00,70.0,53.1,30.18,ENE,68,4.0,6.0,55,0.00,,---,0.00,VWS V14.00,2013-03-09 15:00:00,
2013-03-09 10:05:00,70.6,52.1,30.18,NE,55,0.0,4.0,52,0.00,,---,0.00,VWS V14.00,2013-03-09 15:05:00,
2013-03-09 10:10:00,71.1,51.0,30.18,ENE,69,4.0,6.0,49,0.00,,---,0.00,VWS V14.00,2013-03-09 15:10:00,
2013-03-09 10:15:00,71.5,51.4,30.18,ENE,57,0.0,6.0,49,0.00,,---,0.00,VWS V14.00,2013-03-09 15:15:00,
2013-03-09 10:20:00,71.6,51.5,30.18,East,87,6.0,8.0,49,0.00,,---,0.00,VWS V14.00,2013-03-09 15:20:00,
2013-03-09 10:25:00,72.4,50.5,30.18,East,90,6.0,8.0,46,0.00,,---,0.00,VWS V14.00,2013-03-09 15:25:00,
2013-03-09 10:30:00,72.6,48.8,30.18,ENE,61,6.0,9.0,43,0.00,,---,0.00,VWS V14.00,2013-03-09 15:30:00,
2013-03-09 10:35:00,72.7,48.3,30.18,ESE,108,3.0,8.0,42,0.00,,---,0.00,VWS V14.00,2013-03-09 15:35:00,
2013-03-09 10:40:00,73.3,50.1,30.19,ESE,113,4.0,5.0,44,0.00,,---,0.00,VWS V14.00,2013-03-09 15:40:00,
2013-03-09 10:45:00,73.5,47.7,30.18,East,94,0.0,6.0,40,0.00,,---,0.00,VWS V14.00,2013-03-09 15:45:00,
2013-03-09 10:50:00,74.2,49.0,30.18,ENE,58,5.0,9.0,41,0.00,,---,0.00,VWS V14.00,2013-03-09 15:50:00,
2013-03-09 10:55:00,74.9,48.3,30.18,ENE,72,0.0,0.0,39,0.00,,---,0.00,VWS V14.00,2013-03-09 15:55:00,
2013-03-09 11:00:00,75.2,49.2,30.18,ENE,64,0.0,0.0,40,0.00,,---,0.00,VWS V14.00,2013-03-09 16:00:00,
2013-03-09 11:05:00,75.5,46.7,30.18,NNE,21,6.0,6.0,36,0.00,,---,0.00,VWS V14.00,2013-03-09 16:05:00,
2013-03-09 11:10:00,74.3,46.4,30.18,NNE,17,0.0,0.0,37,0.00,,---,0.00,VWS V14.00,2013-03-09 16:10:00,
2013-03-09 11:15:00,74.4,47.9,30.18,ENE,68,0.0,9.0,39,0.00,,---,0.00,VWS V14.00,2013-03-09 16:15:00,
2013-03-09 11:20:00,74.7,48.8,30.18,NNE,26,0.0,0.0,40,0.00,,---,0.00,VWS V14.00,2013-03-09 16:20:00,
2013-03-09 11:25:00,75.7,47.6,30.17,ESE,117,0.0,4.0,37,0.00,,---,0.00,VWS V14.00,2013-03-09 16:25:00,
2013-03-09 11:30:00,75.7,47.6,30.17,ENE,63,0.0,0.0,37,0.00,,---,0.00,VWS V14.00,2013-03-09 16:30:00,
2013-03-09 11:35:00,75.8,48.4,30.17,East,84,0.0,0.0,38,0.00,,---,0.00,VWS V14.00,2013-03-09 16:35:00,
2013-03-09 11:40:00,76.4,48.2,30.17,East,92,3.0,8.0,37,0.00,,---,0.00,VWS V14.00,2013-03-09 16:40:00,
2013-03-09 11:45:00,77.2,48.9,30.17,East,93,6.0,6.0,37,0.00,,---,0.00,VWS V14.00,2013-03-09 16:45:00,
2013-03-09 11:50:00,77.9,49.6,30.17,East,90,0.0,1.0,37,0.00,,---,0.00,VWS V14.00,2013-03-09 16:50:00,
2013-03-09 11:55:00,78.1,47.5,30.16,East,99,0.0,5.0,34,0.00,,---,0.00,VWS V14.00,2013-03-09 16:55:00,
2013-03-09 12:00:00,77.5,45.3,30.16,East,92,7.0,7.0,32,0.00,,---,0.00,VWS V14.00,2013-03-09 17:00:00,
2013-03-09 12:05:00,77.5,44.5,30.15,ENE,69,4.0,10.0,31,0.00,,---,0.00,VWS V14.00,2013-03-09 17:05:00,
2013-03-09 12:10:00,77.3,44.3,30.15,NE,49,0.0,6.0,31,0.00,,---,0.00,VWS V14.00,2013-03-09 17:10:00,
2013-03-09 12:15:00,77.4,47.6,30.15,East,87,6.0,8.0,35,0.00,,---,0.00,VWS V14.00,2013-03-09 17:15:00,
2013-03-09 12:20:00,77.9,44.9,30.15,ENE,71,5.0,10.0,31,0.00,,---,0.00,VWS V14.00,2013-03-09 17:20:00,
2013-03-09 12:25:00,77.4,42.7,30.15,ENE,57,0.0,6.0,29,0.00,,---,0.00,VWS V14.00,2013-03-09 17:25:00,
2013-03-09 12:30:00,77.3,42.6,30.15,North,351,4.0,9.0,29,0.00,,---,0.00,VWS V14.00,2013-03-09 17:30:00,
2013-03-09 12:35:00,76.6,42.0,30.14,NNE,28,4.0,5.0,29,0.00,,---,0.00,VWS V14.00,2013-03-09 17:35:00,
2013-03-09 12:40:00,76.0,42.4,30.15,North,5,6.0,6.0,30,0.00,,---,0.00,VWS V14.00,2013-03-09 17:40:00,
2013-03-09 12:45:00,76.1,42.5,30.15,ENE,68,0.0,8.0,30,0.00,,---,0.00,VWS V14.00,2013-03-09 17:45:00,
2013-03-09 12:50:00,76.9,44.0,30.14,NNE,25,5.0,5.0,31,0.00,,---,0.00,VWS V14.00,2013-03-09 17:50:00,
2013-03-09 12:55:00,77.7,42.9,30.14,NNE,17,0.0,4.0,29,0.00,,---,0.00,VWS V14.00,2013-03-09 17:55:00,
2013-03-09 13:00:00,77.3,41.7,30.14,NNE,16,0.0,6.0,28,0.00,,---,0.00,VWS V14.00,2013-03-09 18:00:00,
2013-03-09 13:05:00,76.6,42.0,30.13,ENE,61,4.0,9.0,29,0.00,,---,0.00,VWS V14.00,2013-03-09 18:05:00,
2013-03-09 13:10:00,76.5,44.5,30.13,East,79,2.0,6.0,32,0.00,,---,0.00,VWS V14.00,2013-03-09 18:10:00,
2013-03-09 13:15:00,76.3,44.3,30.13,ENE,69,0.0,0.0,32,0.00,,---,0.00,VWS V14.00,2013-03-09 18:15:00,
2013-03-09 13:20:00,75.9,42.3,30.13,NE,46,0.0,6.0,30,0.00,,---,0.00,VWS V14.00,2013-03-09 18:20:00,
2013-03-09 13:25:00,75.7,43.0,30.12,ENE,77,1.0,7.0,31,0.00,,---,0.00,VWS V14.00,2013-03-09 18:25:00,
2013-03-09 13:30:00,75.9,43.1,30.12,ENE,67,4.0,8.0,31,0.00,,---,0.00,VWS V14.00,2013-03-09 18:30:00,
2013-03-09 13:35:00,75.9,44.8,30.11,North,360,10.0,10.0,33,0.00,,---,0.00,VWS V14.00,2013-03-09 18:35:00,
2013-03-09 13:40:00,75.9,46.3,30.10,East,90,0.0,3.0,35,0.00,,---,0.00,VWS V14.00,2013-03-09 18:40:00,
2013-03-09 13:45:00,76.5,45.3,30.10,ENE,61,0.0,0.0,33,0.00,,---,0.00,VWS V14.00,2013-03-09 18:45:00,
2013-03-09 13:50:00,77.2,47.5,30.10,NNE,28,0.0,2.0,35,0.00,,---,0.00,VWS V14.00,2013-03-09 18:50:00,
2013-03-09 13:55:00,77.8,45.6,30.09,East,86,0.0,13.0,32,0.00,,---,0.00,VWS V14.00,2013-03-09 18:55:00,
2013-03-09 14:00:00,77.5,45.3,30.09,ENE,74,6.0,9.0,32,0.00,,---,0.00,VWS V14.00,2013-03-09 19:00:00,
2013-03-09 14:05:00,77.0,45.7,30.09,East,92,0.0,6.0,33,0.00,,---,0.00,VWS V14.00,2013-03-09 19:05:00,
2013-03-09 14:10:00,77.0,47.3,30.10,East,86,5.0,6.0,35,0.00,,---,0.00,VWS V14.00,2013-03-09 19:10:00,
2013-03-09 14:15:00,77.7,47.9,30.10,ENE,65,2.0,5.0,35,0.00,,---,0.00,VWS V14.00,2013-03-09 19:15:00,
2013-03-09 14:20:00,78.0,45.0,30.10,ENE,66,0.0,0.0,31,0.00,,---,0.00,VWS V14.00,2013-03-09 19:20:00,
2013-03-09 14:25:00,77.8,43.9,30.10,NNE,13,0.0,9.0,30,0.00,,---,0.00,VWS V14.00,2013-03-09 19:25:00,
2013-03-09 14:30:00,77.5,46.2,30.10,North,5,0.0,0.0,33,0.00,,---,0.00,VWS V14.00,2013-03-09 19:30:00,
2013-03-09 14:35:00,77.5,47.0,30.11,ENE,59,0.0,6.0,34,0.00,,---,0.00,VWS V14.00,2013-03-09 19:35:00,
2013-03-09 14:40:00,77.5,46.2,30.11,NE,55,0.0,0.0,33,0.00,,---,0.00,VWS V14.00,2013-03-09 19:40:00,
2013-03-09 14:45:00,77.2,47.5,30.10,ENE,57,1.0,1.0,35,0.00,,---,0.00,VWS V14.00,2013-03-09 19:45:00,
2013-03-09 14:50:00,77.1,48.1,30.11,SE,130,5.0,9.0,36,0.00,,---,0.00,VWS V14.00,2013-03-09 19:50:00,
2013-03-09 14:55:00,77.3,48.3,30.10,East,87,0.0,0.0,36,0.00,,---,0.00,VWS V14.00,2013-03-09 19:55:00,
2013-03-09 15:00:00,77.1,48.1,30.10,ENE,63,0.0,6.0,36,0.00,,---,0.00,VWS V14.00,2013-03-09 20:00:00,
2013-03-09 15:05:00,76.7,48.5,30.09,ENE,73,4.0,6.0,37,0.00,,---,0.00,VWS V14.00,2013-03-09 20:05:00,
2013-03-09 15:10:00,76.3,48.8,30.09,ESE,117,9.0,9.0,38,0.00,,---,0.00,VWS V14.00,2013-03-09 20:10:00,
2013-03-09 15:15:00,75.8,49.8,30.09,ENE,78,0.0,4.0,40,0.00,,---,0.00,VWS V14.00,2013-03-09 20:15:00,
2013-03-09 15:20:00,75.8,49.8,30.09,ENE,76,0.0,6.0,40,0.00,,---,0.00,VWS V14.00,2013-03-09 20:20:00,
2013-03-09 15:25:00,75.9,49.2,30.09,ENE,60,4.0,4.0,39,0.00,,---,0.00,VWS V14.00,2013-03-09 20:25:00,
2013-03-09 15:30:00,75.9,49.2,30.10,East,88,0.0,4.0,39,0.00,,---,0.00,VWS V14.00,2013-03-09 20:30:00,
2013-03-09 15:35:00,76.0,47.9,30.10,ENE,75,0.0,6.0,37,0.00,,---,0.00,VWS V14.00,2013-03-09 20:35:00,
2013-03-09 15:40:00,76.2,48.0,30.10,NE,46,0.0,0.0,37,0.00,,---,0.00,VWS V14.00,2013-03-09 20:40:00,
2013-03-09 15:45:00,76.5,47.6,30.10,East,80,0.0,0.0,36,0.00,,---,0.00,VWS V14.00,2013-03-09 20:45:00,
2013-03-09 15:50:00,76.6,46.9,30.10,East,82,0.0,9.0,35,0.00,,---,0.00,VWS V14.00,2013-03-09 20:50:00,
2013-03-09 15:55:00,76.4,46.0,30.09,ENE,63,5.0,7.0,34,0.00,,---,0.00,VWS V14.00,2013-03-09 20:55:00,
2013-03-09 16:00:00,75.9,45.5,30.09,NE,55,0.0,11.0,34,0.00,,---,0.00,VWS V14.00,2013-03-09 21:00:00,
2013-03-09 16:05:00,75.2,44.9,30.09,NE,50,0.0,0.0,34,0.00,,---,0.00,VWS V14.00,2013-03-09 21:05:00,
2013-03-09 16:10:00,74.9,43.9,30.09,ENE,59,2.0,5.0,33,0.00,,---,0.00,VWS V14.00,2013-03-09 21:10:00,
2013-03-09 16:15:00,74.8,45.3,30.10,NE,44,0.0,2.0,35,0.00,,---,0.00,VWS V14.00,2013-03-09 21:15:00,
2013-03-09 16:20:00,73.8,45.9,30.10,NE,43,0.0,7.0,37,0.00,,---,0.00,VWS V14.00,2013-03-09 21:20:00,
2013-03-09 16:21:00,74.6,44.4,30.09,NE,48,0.0,9.0,34,0.00,,---,0.00,VWS V14.00,2013-03-09 21:21:00,
2013-03-09 16:25:00,73.6,45.8,30.10,East,92,0.0,6.0,37,0.00,,---,0.00,VWS V14.00,2013-03-09 21:25:00,
2013-03-09 16:26:00,74.3,44.9,30.09,ENE,63,6.0,7.0,35,0.00,,---,0.00,VWS V14.00,2013-03-09 21:26:00,
2013-03-09 16:30:00,74.3,45.7,30.09,NNE,30,0.0,10.0,36,0.00,,---,0.00,VWS V14.00,2013-03-09 21:30:00,
2013-03-09 16:35:00,74.5,45.8,30.09,NE,37,0.0,5.0,36,0.00,,---,0.00,VWS V14.00,2013-03-09 21:35:00,
2013-03-09 16:40:00,74.4,47.2,30.10,NNE,16,3.0,6.0,38,0.00,,---,0.00,VWS V14.00,2013-03-09 21:40:00,
2013-03-09 16:45:00,74.3,45.7,30.10,ENE,70,0.0,7.0,36,0.00,,---,0.00,VWS V14.00,2013-03-09 21:45:00,
2013-03-09 16:50:00,74.2,46.3,30.10,East,80,0.0,9.0,37,0.00,,---,0.00,VWS V14.00,2013-03-09 21:50:00,
2013-03-09 16:55:00,74.1,46.2,30.09,ENE,62,0.0,11.0,37,0.00,,---,0.00,VWS V14.00,2013-03-09 21:55:00,
2013-03-09 17:00:00,74.0,46.1,30.09,NE,53,0.0,7.0,37,0.00,,---,0.00,VWS V14.00,2013-03-09 22:00:00,
2013-03-09 17:05:00,74.0,45.4,30.10,ENE,69,0.0,0.0,36,0.00,,---,0.00,VWS V14.00,2013-03-09 22:05:00,
2013-03-09 17:10:00,73.9,46.0,30.09,NE,40,0.0,6.0,37,0.00,,---,0.00,VWS V14.00,2013-03-09 22:10:00,
2013-03-09 17:15:00,73.9,45.3,30.10,NE,43,0.0,5.0,36,0.00,,---,0.00,VWS V14.00,2013-03-09 22:15:00,
2013-03-09 17:20:00,73.7,45.1,30.10,ENE,76,5.0,6.0,36,0.00,,---,0.00,VWS V14.00,2013-03-09 22:20:00,
2013-03-09 17:25:00,73.6,45.8,30.10,East,91,0.0,0.0,37,0.00,,---,0.00,VWS V14.00,2013-03-09 22:25:00,
2013-03-09 17:30:00,73.3,46.2,30.10,ENE,61,4.0,5.0,38,0.00,,---,0.00,VWS V14.00,2013-03-09 22:30:00,
2013-03-09 17:35:00,73.0,45.9,30.10,ENE,65,0.0,2.0,38,0.00,,---,0.00,VWS V14.00,2013-03-09 22:35:00,
2013-03-09 17:40:00,72.6,46.2,30.11,NE,55,0.0,0.0,39,0.00,,---,0.00,VWS V14.00,2013-03-09 22:40:00,
2013-03-09 17:45:00,72.3,45.3,30.11,NE,55,0.0,0.0,38,0.00,,---,0.00,VWS V14.00,2013-03-09 22:45:00,
2013-03-09 17:50:00,72.1,45.8,30.10,NE,55,0.0,0.0,39,0.00,,---,0.00,VWS V14.00,2013-03-09 22:50:00,
2013-03-09 17:55:00,68.7,50.4,30.11,NE,55,5.0,6.0,52,0.00,,---,0.00,VWS V14.00,2013-03-09 22:55:00,
2013-03-09 17:56:00,71.9,45.6,30.10,NE,55,0.0,0.0,39,0.00,,---,0.00,VWS V14.00,2013-03-09 22:56:00,
2013-03-09 18:00:00,68.5,50.7,30.11,ENE,71,4.0,7.0,53,0.00,,---,0.00,VWS V14.00,2013-03-09 23:00:00,
2013-03-09 18:01:00,71.7,46.1,30.10,NE,55,0.0,0.0,40,0.00,,---,0.00,VWS V14.00,2013-03-09 23:01:00,
2013-03-09 18:05:00,68.2,50.9,30.11,NE,53,0.0,8.0,54,0.00,,---,0.00,VWS V14.00,2013-03-09 23:05:00,
2013-03-09 18:06:00,71.4,46.5,30.10,NE,55,0.0,0.0,41,0.00,,---,0.00,VWS V14.00,2013-03-09 23:06:00,
2013-03-09 18:10:00,68.0,51.7,30.12,ENE,71,0.0,8.0,56,0.00,,---,0.00,VWS V14.00,2013-03-09 23:10:00,
2013-03-09 18:11:00,71.2,47.6,30.10,NE,55,0.0,0.0,43,0.00,,---,0.00,VWS V14.00,2013-03-09 23:11:00,
2013-03-09 18:15:00,67.7,52.4,30.13,ENE,69,0.0,0.0,58,0.00,,---,0.00,VWS V14.00,2013-03-09 23:15:00,
2013-03-09 18:16:00,70.9,47.3,30.10,NE,55,0.0,0.0,43,0.00,,---,0.00,VWS V14.00,2013-03-09 23:16:00,
2013-03-09 18:20:00,67.4,52.6,30.14,ENE,69,0.0,0.0,59,0.00,,---,0.00,VWS V14.00,2013-03-09 23:20:00,
2013-03-09 18:21:00,70.7,48.3,30.10,NE,55,0.0,0.0,45,0.00,,---,0.00,VWS V14.00,2013-03-09 23:21:00,
2013-03-09 18:25:00,67.1,52.8,30.14,ENE,69,0.0,0.0,60,0.00,,---,0.00,VWS V14.00,2013-03-09 23:25:00,
2013-03-09 18:26:00,70.4,48.7,30.10,NE,55,0.0,0.0,46,0.00,,---,0.00,VWS V14.00,2013-03-09 23:26:00,
2013-03-09 18:30:00,66.7,52.4,30.14,East,88,3.0,8.0,60,0.00,,---,0.00,VWS V14.00,2013-03-09 23:30:00,
2013-03-09 18:31:00,70.1,49.0,30.10,NE,55,0.0,0.0,47,0.00,,---,0.00,VWS V14.00,2013-03-09 23:31:00,
2013-03-09 18:35:00,66.4,52.6,30.13,ENE,61,5.0,7.0,61,0.00,,---,0.00,VWS V14.00,2013-03-09 23:35:00,
2013-03-09 18:36:00,69.8,49.2,30.11,NE,55,0.0,0.0,48,0.00,,---,0.00,VWS V14.00,2013-03-09 23:36:00,
2013-03-09 18:40:00,66.2,52.4,30.13,NE,47,6.0,7.0,61,0.00,,---,0.00,VWS V14.00,2013-03-09 23:40:00,
2013-03-09 18:41:00,69.5,49.5,30.11,NE,55,0.0,0.0,49,0.00,,---,0.00,VWS V14.00,2013-03-09 23:41:00,
2013-03-09 18:45:00,66.0,52.2,30.14,NE,49,5.0,6.0,61,0.00,,---,0.00,VWS V14.00,2013-03-09 23:45:00,
2013-03-09 18:46:00,69.2,50.3,30.11,NE,55,0.0,0.0,51,0.00,,---,0.00,VWS V14.00,2013-03-09 23:46:00,
2013-03-09 18:50:00,65.8,52.4,30.14,ENE,65,0.0,6.0,62,0.00,,---,0.00,VWS V14.00,2013-03-09 23:50:00,
2013-03-09 18:51:00,68.8,50.5,30.11,NE,55,0.0,0.0,52,0.00,,---,0.00,VWS V14.00,2013-03-09 23:51:00,
2013-03-09 18:55:00,65.5,52.2,30.15,ENE,63,0.0,6.0,62,0.00,,---,0.00,VWS V14.00,2013-03-09 23:55:00,
2013-03-09 18:56:00,68.6,50.3,30.11,ENE,59,0.0,7.0,52,0.00,,---,0.00,VWS V14.00,2013-03-09 23:56:00,
2013-03-09 19:00:00,65.2,52.3,30.15,ENE,64,0.0,0.0,63,0.00,,---,0.00,VWS V14.00,2013-03-10 00:00:00,
2013-03-09 19:01:00,68.4,51.1,30.11,ENE,71,1.0,6.0,54,0.00,,---,0.00,VWS V14.00,2013-03-10 00:01:00,
2013-03-09 19:05:00,65.0,52.1,30.15,ENE,68,0.0,7.0,63,0.00,,---,0.00,VWS V14.00,2013-03-10 00:05:00,
2013-03-09 19:06:00,68.2,51.4,30.12,NE,51,5.0,8.0,55,0.00,,---,0.00,VWS V14.00,2013-03-10 00:06:00,
2013-03-09 19:10:00,64.7,51.8,30.16,ENE,70,0.0,6.0,63,0.00,,---,0.00,VWS V14.00,2013-03-10 00:10:00,
2013-03-09 19:11:00,67.9,52.1,30.12,ENE,69,0.0,0.0,57,0.00,,---,0.00,VWS V14.00,2013-03-10 00:11:00,
2013-03-09 19:15:00,64.5,52.1,30.16,ENE,69,0.0,4.0,64,0.00,,---,0.00,VWS V14.00,2013-03-10 00:15:00,
2013-03-09 19:16:00,67.6,52.3,30.13,ENE,69,0.0,0.0,58,0.00,,---,0.00,VWS V14.00,2013-03-10 00:16:00,
2013-03-09 19:20:00,64.3,51.9,30.16,ENE,68,0.0,2.0,64,0.00,,---,0.00,VWS V14.00,2013-03-10 00:20:00,
2013-03-09 19:21:00,67.2,52.4,30.14,ENE,69,0.0,0.0,59,0.00,,---,0.00,VWS V14.00,2013-03-10 00:21:00,
2013-03-09 19:25:00,64.0,52.0,30.16,ENE,63,4.0,6.0,65,0.00,,---,0.00,VWS V14.00,2013-03-10 00:25:00,
2013-03-09 19:26:00,66.9,52.6,30.14,ENE,69,0.0,0.0,60,0.00,,---,0.00,VWS V14.00,2013-03-10 00:26:00,
2013-03-09 19:30:00,63.8,51.8,30.16,ENE,61,0.0,6.0,65,0.00,,---,0.00,VWS V14.00,2013-03-10 00:30:00,
2013-03-09 19:31:00,66.6,52.3,30.13,ENE,57,4.0,7.0,60,0.00,,---,0.00,VWS V14.00,2013-03-10 00:31:00,
2013-03-09 19:35:00,63.6,52.0,30.16,ENE,61,0.0,0.0,66,0.00,,---,0.00,VWS V14.00,2013-03-10 00:35:00,
2013-03-09 19:36:00,66.3,52.5,30.13,ENE,61,0.0,5.0,61,0.00,,---,0.00,VWS V14.00,2013-03-10 00:36:00,
2013-03-09 19:40:00,63.4,51.9,30.17,ENE,61,0.0,0.0,66,0.00,,---,0.00,VWS V14.00,2013-03-10 00:40:00,
2013-03-09 19:41:00,66.1,52.3,30.14,NE,48,0.0,6.0,61,0.00,,---,0.00,VWS V14.00,2013-03-10 00:41:00,
2013-03-09 19:45:00,63.1,52.0,30.17,ENE,61,0.0,0.0,67,0.00,,---,0.00,VWS V14.00,2013-03-10 00:45:00,
2013-03-09 19:46:00,65.9,52.1,30.14,NE,51,0.0,5.0,61,0.00,,---,0.00,VWS V14.00,2013-03-10 00:46:00,
2013-03-09 19:50:00,62.9,52.2,30.16,ENE,61,0.0,5.0,68,0.00,,---,0.00,VWS V14.00,2013-03-10 00:50:00,
2013-03-09 19:51:00,65.7,51.9,30.14,ENE,64,0.0,0.0,61,0.00,,---,0.00,VWS V14.00,2013-03-10 00:51:00,
2013-03-09 19:55:00,62.8,52.1,30.17,ENE,60,2.0,6.0,68,0.00,,---,0.00,VWS V14.00,2013-03-10 00:55:00,
2013-03-09 19:56:00,65.4,52.1,30.15,ENE,63,0.0,0.0,62,0.00,,---,0.00,VWS V14.00,2013-03-10 00:56:00,
2013-03-09 20:01:00,65.1,51.8,30.15,ENE,63,0.0,5.0,62,0.00,,---,0.00,VWS V14.00,2013-03-10 01:01:00,
2013-03-09 20:05:00,62.5,52.2,30.17,ENE,59,3.0,5.0,69,0.00,,---,0.00,VWS V14.00,2013-03-10 01:05:00,
2013-03-09 20:06:00,64.9,51.6,30.15,ENE,71,0.0,6.0,62,0.00,,---,0.00,VWS V14.00,2013-03-10 01:06:00,
2013-03-09 20:10:00,62.4,52.5,30.17,ENE,59,0.0,6.0,70,0.00,,---,0.00,VWS V14.00,2013-03-10 01:10:00,
2013-03-09 20:11:00,64.7,51.8,30.16,ENE,70,0.0,4.0,63,0.00,,---,0.00,VWS V14.00,2013-03-10 01:11:00,
2013-03-09 20:15:00,62.3,52.4,30.17,ENE,60,4.0,5.0,70,0.00,,---,0.00,VWS V14.00,2013-03-10 01:15:00,
2013-03-09 20:16:00,64.4,52.0,30.16,ENE,69,0.0,0.0,64,0.00,,---,0.00,VWS V14.00,2013-03-10 01:16:00,
2013-03-09 20:20:00,62.1,52.2,30.17,ENE,60,0.0,5.0,70,0.00,,---,0.00,VWS V14.00,2013-03-10 01:20:00,
2013-03-09 20:21:00,64.2,51.8,30.16,ENE,66,0.0,2.0,64,0.00,,---,0.00,VWS V14.00,2013-03-10 01:21:00,
2013-03-09 20:25:00,62.0,52.5,30.17,ENE,60,2.0,5.0,71,0.00,,---,0.00,VWS V14.00,2013-03-10 01:25:00,
2013-03-09 20:26:00,64.0,52.0,30.16,ENE,61,2.0,6.0,65,0.00,,---,0.00,VWS V14.00,2013-03-10 01:26:00,
2013-03-09 20:30:00,61.9,52.4,30.17,ENE,62,1.0,6.0,71,0.00,,---,0.00,VWS V14.00,2013-03-10 01:30:00,
2013-03-09 20:31:00,63.7,52.1,30.16,ENE,61,0.0,0.0,66,0.00,,---,0.00,VWS V14.00,2013-03-10 01:31:00,
2013-03-09 20:35:00,61.9,52.4,30.17,ENE,62,1.0,5.0,71,0.00,,---,0.00,VWS V14.00,2013-03-10 01:35:00,
2013-03-09 20:36:00,63.5,52.0,30.17,ENE,61,0.0,0.0,66,0.00,,---,0.00,VWS V14.00,2013-03-10 01:36:00,
2013-03-09 20:40:00,61.8,52.7,30.17,ENE,59,1.0,5.0,72,0.00,,---,0.00,VWS V14.00,2013-03-10 01:40:00,
2013-03-09 20:41:00,63.3,52.2,30.16,ENE,61,0.0,0.0,67,0.00,,---,0.00,VWS V14.00,2013-03-10 01:41:00,
2013-03-09 20:45:00,61.8,52.7,30.17,ENE,59,0.0,4.0,72,0.00,,---,0.00,VWS V14.00,2013-03-10 01:45:00,
2013-03-09 20:46:00,63.1,52.0,30.17,ENE,61,0.0,5.0,67,0.00,,---,0.00,VWS V14.00,2013-03-10 01:46:00,
2013-03-09 20:50:00,61.6,52.5,30.16,ENE,59,0.0,3.0,72,0.00,,---,0.00,VWS V14.00,2013-03-10 01:50:00,
2013-03-09 20:51:00,62.9,52.2,30.16,ENE,60,2.0,5.0,68,0.00,,---,0.00,VWS V14.00,2013-03-10 01:51:00,
2013-03-09 20:55:00,61.4,52.7,30.17,ENE,59,0.0,0.0,73,0.00,,---,0.00,VWS V14.00,2013-03-10 01:55:00,
2013-03-09 20:56:00,62.7,52.0,30.17,ENE,59,5.0,5.0,68,0.00,,---,0.00,VWS V14.00,2013-03-10 01:56:00,
2013-03-09 21:00:00,61.3,52.6,30.17,ENE,59,0.0,0.0,73,0.00,,---,0.00,VWS V14.00,2013-03-10 02:00:00,
2013-03-09 21:01:00,62.6,52.3,30.17,ENE,59,3.0,5.0,69,0.00,,---,0.00,VWS V14.00,2013-03-10 02:01:00,
2013-03-09 21:05:00,61.1,52.4,30.17,ENE,60,0.0,4.0,73,0.00,,---,0.00,VWS V14.00,2013-03-10 02:05:00,
2013-03-09 21:06:00,62.5,52.2,30.17,ENE,59,2.0,6.0,69,0.00,,---,0.00,VWS V14.00,2013-03-10 02:06:00,
2013-03-09 21:10:00,61.0,52.7,30.17,ENE,60,0.0,0.0,74,0.00,,---,0.00,VWS V14.00,2013-03-10 02:10:00,
2013-03-09 21:11:00,62.4,52.5,30.17,ENE,59,1.0,1.0,70,0.00,,---,0.00,VWS V14.00,2013-03-10 02:11:00,
2013-03-09 21:15:00,60.9,52.6,30.17,ENE,60,0.0,0.0,74,0.00,,---,0.00,VWS V14.00,2013-03-10 02:15:00,
2013-03-09 21:16:00,62.2,52.3,30.17,ENE,60,0.0,4.0,70,0.00,,---,0.00,VWS V14.00,2013-03-10 02:16:00,
2013-03-09 21:20:00,60.7,52.7,30.17,ENE,60,0.0,0.0,75,0.00,,---,0.00,VWS V14.00,2013-03-10 02:20:00,
2013-03-09 21:21:00,62.1,52.6,30.17,ENE,60,0.0,5.0,71,0.00,,---,0.00,VWS V14.00,2013-03-10 02:21:00,
2013-03-09 21:25:00,60.4,52.5,30.17,ENE,60,0.0,0.0,75,0.00,,---,0.00,VWS V14.00,2013-03-10 02:25:00,
2013-03-09 21:26:00,62.0,52.5,30.16,ENE,62,2.0,6.0,71,0.00,,---,0.00,VWS V14.00,2013-03-10 02:26:00,
2013-03-09 21:30:00,60.2,52.6,30.16,ENE,60,0.0,0.0,76,0.00,,---,0.00,VWS V14.00,2013-03-10 02:30:00,
2013-03-09 21:31:00,61.9,52.4,30.17,ENE,62,0.0,5.0,71,0.00,,---,0.00,VWS V14.00,2013-03-10 02:31:00,
2013-03-09 21:35:00,60.0,52.4,30.16,ENE,60,0.0,0.0,76,0.00,,---,0.00,VWS V14.00,2013-03-10 02:35:00,
2013-03-09 21:36:00,61.9,52.4,30.17,ENE,62,0.0,1.0,71,0.00,,---,0.00,VWS V14.00,2013-03-10 02:36:00,
2013-03-09 21:40:00,59.9,52.7,30.17,ENE,60,0.0,0.0,77,0.00,,---,0.00,VWS V14.00,2013-03-10 02:40:00,
2013-03-09 21:41:00,61.9,52.8,30.17,ENE,59,0.0,4.0,72,0.00,,---,0.00,VWS V14.00,2013-03-10 02:41:00,
2013-03-09 21:45:00,59.8,52.6,30.17,ENE,60,0.0,0.0,77,0.00,,---,0.00,VWS V14.00,2013-03-10 02:45:00,
2013-03-09 21:46:00,61.7,52.6,30.17,ENE,59,0.0,0.0,72,0.00,,---,0.00,VWS V14.00,2013-03-10 02:46:00,
2013-03-09 21:50:00,59.7,52.8,30.17,ENE,60,0.0,0.0,78,0.00,,---,0.00,VWS V14.00,2013-03-10 02:50:00,
2013-03-09 21:51:00,61.6,52.5,30.16,ENE,59,0.0,0.0,72,0.00,,---,0.00,VWS V14.00,2013-03-10 02:51:00,
2013-03-09 21:55:00,59.6,52.7,30.16,ENE,60,0.0,0.0,78,0.00,,---,0.00,VWS V14.00,2013-03-10 02:55:00,
2013-03-09 21:56:00,61.4,52.7,30.17,ENE,59,0.0,0.0,73,0.00,,---,0.00,VWS V14.00,2013-03-10 02:56:00,
2013-03-09 22:00:00,59.5,53.0,30.16,ENE,60,2.0,2.0,79,0.00,,---,0.00,VWS V14.00,2013-03-10 03:00:00,
2013-03-09 22:01:00,61.2,52.5,30.17,ENE,60,4.0,4.0,73,0.00,,---,0.00,VWS V14.00,2013-03-10 03:01:00,
2013-03-09 22:05:00,59.5,53.0,30.16,ENE,60,0.0,2.0,79,0.00,,---,0.00,VWS V14.00,2013-03-10 03:05:00,
2013-03-09 22:06:00,61.1,52.8,30.17,ENE,60,0.0,0.0,74,0.00,,---,0.00,VWS V14.00,2013-03-10 03:06:00,
2013-03-09 22:10:00,59.5,53.0,30.16,ENE,60,0.0,5.0,79,0.00,,---,0.00,VWS V14.00,2013-03-10 03:10:00,
2013-03-09 22:11:00,60.9,52.6,30.17,ENE,60,0.0,0.0,74,0.00,,---,0.00,VWS V14.00,2013-03-10 03:11:00,
2013-03-09 22:15:00,59.5,53.0,30.16,ENE,60,0.0,2.0,79,0.00,,---,0.00,VWS V14.00,2013-03-10 03:15:00,
2013-03-09 22:16:00,60.8,53.2,30.17,ENE,60,0.0,0.0,76,0.00,,---,0.00,VWS V14.00,2013-03-10 03:16:00,
2013-03-09 22:20:00,59.5,53.0,30.16,ENE,60,0.0,0.0,79,0.00,,---,0.00,VWS V14.00,2013-03-10 03:20:00,
2013-03-09 22:21:00,60.6,52.6,30.17,ENE,60,0.0,0.0,75,0.00,,---,0.00,VWS V14.00,2013-03-10 03:21:00,
2013-03-09 22:25:00,59.5,53.3,30.16,ENE,60,0.0,0.0,80,0.00,,---,0.00,VWS V14.00,2013-03-10 03:25:00,
2013-03-09 22:26:00,60.4,52.5,30.17,ENE,60,0.0,0.0,75,0.00,,---,0.00,VWS V14.00,2013-03-10 03:26:00,
2013-03-09 22:30:00,59.4,53.2,30.16,ENE,60,0.0,2.0,80,0.00,,---,0.00,VWS V14.00,2013-03-10 03:30:00,
2013-03-09 22:31:00,60.2,52.6,30.16,ENE,60,0.0,0.0,76,0.00,,---,0.00,VWS V14.00,2013-03-10 03:31:00,
2013-03-09 22:35:00,59.3,53.1,30.16,ENE,60,0.0,0.0,80,0.00,,---,0.00,VWS V14.00,2013-03-10 03:35:00,
2013-03-09 22:36:00,60.0,52.8,30.17,ENE,60,0.0,0.0,77,0.00,,---,0.00,VWS V14.00,2013-03-10 03:36:00,
2013-03-09 22:40:00,59.2,53.0,30.16,ENE,60,0.0,0.0,80,0.00,,---,0.00,VWS V14.00,2013-03-10 03:40:00,
2013-03-09 22:41:00,59.8,52.6,30.17,ENE,60,0.0,0.0,77,0.00,,---,0.00,VWS V14.00,2013-03-10 03:41:00,
2013-03-09 22:45:00,59.0,52.8,30.16,ENE,60,0.0,0.0,80,0.00,,---,0.00,VWS V14.00,2013-03-10 03:45:00,
2013-03-09 22:46:00,59.7,52.5,30.17,ENE,60,0.0,0.0,77,0.00,,---,0.00,VWS V14.00,2013-03-10 03:46:00,
2013-03-09 22:50:00,58.7,52.9,30.15,ENE,60,0.0,0.0,81,0.00,,---,0.00,VWS V14.00,2013-03-10 03:50:00,
2013-03-09 22:51:00,59.7,52.5,30.17,ENE,60,0.0,0.0,77,0.00,,---,0.00,VWS V14.00,2013-03-10 03:51:00,
2013-03-09 22:55:00,58.5,52.7,30.16,ENE,60,0.0,0.0,81,0.00,,---,0.00,VWS V14.00,2013-03-10 03:55:00,
2013-03-09 22:56:00,59.6,52.7,30.16,ENE,60,0.0,0.0,78,0.00,,---,0.00,VWS V14.00,2013-03-10 03:56:00,
2013-03-09 23:00:00,58.3,52.8,30.15,ENE,60,1.0,1.0,82,0.00,,---,0.00,VWS V14.00,2013-03-10 04:00:00,
2013-03-09 23:01:00,59.5,53.0,30.16,ENE,60,0.0,2.0,79,0.00,,---,0.00,VWS V14.00,2013-03-10 04:01:00,
2013-03-09 23:05:00,58.2,52.7,30.14,ENE,60,0.0,0.0,82,0.00,,---,0.00,VWS V14.00,2013-03-10 04:05:00,
2013-03-09 23:06:00,59.5,53.0,30.16,ENE,60,0.0,2.0,79,0.00,,---,0.00,VWS V14.00,2013-03-10 04:06:00,
2013-03-09 23:10:00,58.2,53.1,30.12,ENE,57,6.0,6.0,83,0.00,,---,0.00,VWS V14.00,2013-03-10 04:10:00,
2013-03-09 23:11:00,59.5,53.0,30.16,ENE,60,0.0,2.0,79,0.00,,---,0.00,VWS V14.00,2013-03-10 04:11:00,
2013-03-09 23:15:00,58.2,52.7,30.14,ENE,57,0.0,6.0,82,0.00,,---,0.00,VWS V14.00,2013-03-10 04:15:00,
2013-03-09 23:16:00,59.5,53.0,30.16,ENE,60,0.0,0.0,79,0.00,,---,0.00,VWS V14.00,2013-03-10 04:16:00,
2013-03-09 23:20:00,58.2,52.7,30.15,ENE,57,0.0,4.0,82,0.00,,---,0.00,VWS V14.00,2013-03-10 04:20:00,
2013-03-09 23:21:00,59.5,53.0,30.16,ENE,60,0.0,0.0,79,0.00,,---,0.00,VWS V14.00,2013-03-10 04:21:00,
2013-03-09 23:25:00,58.1,52.6,30.14,ENE,57,0.0,0.0,82,0.00,,---,0.00,VWS V14.00,2013-03-10 04:25:00,
2013-03-09 23:26:00,59.4,52.9,30.16,ENE,60,0.0,2.0,79,0.00,,---,0.00,VWS V14.00,2013-03-10 04:26:00,
2013-03-09 23:30:00,58.0,52.9,30.14,ENE,57,0.0,0.0,83,0.00,,---,0.00,VWS V14.00,2013-03-10 04:30:00,
2013-03-09 23:31:00,59.4,53.2,30.16,ENE,60,0.0,0.0,80,0.00,,---,0.00,VWS V14.00,2013-03-10 04:31:00,
2013-03-09 23:35:00,57.9,52.8,30.14,ENE,57,0.0,0.0,83,0.00,,---,0.00,VWS V14.00,2013-03-10 04:35:00,
2013-03-09 23:36:00,59.3,53.1,30.16,ENE,60,0.0,0.0,80,0.00,,---,0.00,VWS V14.00,2013-03-10 04:36:00,
2013-03-09 23:40:00,57.9,52.8,30.12,ENE,57,0.0,0.0,83,0.00,,---,0.00,VWS V14.00,2013-03-10 04:40:00,
2013-03-09 23:41:00,59.1,52.9,30.16,ENE,60,0.0,0.0,80,0.00,,---,0.00,VWS V14.00,2013-03-10 04:41:00,
2013-03-09 23:45:00,57.9,52.8,30.12,NE,56,1.0,6.0,83,0.00,,---,0.00,VWS V14.00,2013-03-10 04:45:00,
2013-03-09 23:46:00,58.9,52.8,30.15,ENE,60,0.0,0.0,80,0.00,,---,0.00,VWS V14.00,2013-03-10 04:46:00,
2013-03-09 23:50:00,58.0,52.9,30.12,ENE,60,5.0,7.0,83,0.00,,---,0.00,VWS V14.00,2013-03-10 04:50:00,
2013-03-09 23:51:00,58.6,52.8,30.16,ENE,60,0.0,0.0,81,0.00,,---,0.00,VWS V14.00,2013-03-10 04:51:00,
2013-03-09 23:55:00,58.1,53.0,30.12,ENE,65,4.0,5.0,83,0.00,,---,0.00,VWS V14.00,2013-03-10 04:55:00,
2013-03-09 23:56:00,58.4,52.9,30.16,ENE,60,0.0,0.0,82,0.00,,---,0.00,VWS V14.00,2013-03-10 04:56:00,